Portada
METAR-TAF:

METAR-TAF

Aeropuertos :

Aeropuerto Internacional de Honiara

Honiara, Guadalcanal, Islas Salomón

latitud: 09-25S, longitud: 160-03E, altitud: 8 m

Observación

El informe se hizo hace 1 hora y 10 minutos, a las 23:00 UTC
Viento 3 kt del este
Temperatura 30°C
Humedad 75%
Presión 1013 hPa
Visibilidad 10 km o más
Escasas nubes a una altura de 1800 ft

METAR: AGGH 282300Z 09003KT 9999 FEW018 30/25 Q1013

Hora: 11:10 (00:10 UTC)

Pronóstico

El informe se hizo hace 59 minutos, a las 23:11 UTC
Pronóstico válido del 29 a las 00 UTC al 29 a las 24 UTC
Viento 10 kt del noreste
Visibilidad 10 km o más
Escasas nubes a una altura de 1800 ft
Probabilidad 40%
entre IN y TE UTC
Visibilidad: 1012 m
Cielo nuboso a una altura de 1600 ft
Escasas nubes a una altura de 1700 ft, Cumulonimbus.

TAF: AGGH 282311Z 2900/2924 05010KT 9999 FEW018 PROB40 INTER 2900/2906 5000 TSSH BKN016 FEW017CB T 30 31 30 27 Q 1013 1011 1010 1012

Observaciones y pronósticos meteorológicos de más de 4000 aeropuertos (mensajes METAR y TAF).

Los puntos amarillos y rojos representan las estaciones disponibles.

Ponga el ratón en el punto deseado para ver el nombre de la estación.

Haga clic para ver las observaciones y los pronósticos meteorológicos.

Para cambiar el mapa : haga clic en los botones verdes con una cruz de color negro para hacer un zoom, en el botón verde con un guión para alejar o en las flechas verdes para mapas adyacentes.


METAR-TAF: